Time;durP1;ratioP1;P1;durP2;ratioP2;P2;SDS_P1;SDS_P2;PMS_P1;PMS_P2;Temp;Humidity;BMP_temperature;BMP_pressure;BME280_temperature;BME280_humidity;BME280_pressure;Samples;Min_cycle;Max_cycle;Signal;HPM_P1;HPM_P2
2022/02/14 00:00:38;;;;;;;9.73;8.00;;;;;;;2.66;84.00;99433.56;5084605;28;20499;-77
2022/02/14 00:03:05;;;;;;;9.73;8.20;;;;;;;2.58;84.12;99430.97;5083957;28;20181;-78
2022/02/14 00:05:32;;;;;;;10.60;8.67;;;;;;;2.40;84.70;99427.75;5084616;28;20204;-77
2022/02/14 00:08:00;;;;;;;12.37;9.07;;;;;;;2.37;85.39;99428.13;5084641;28;20239;-78
2022/02/14 00:10:27;;;;;;;10.27;8.37;;;;;;;2.16;86.92;99420.75;5085156;28;20213;-77
2022/02/14 00:12:59;;;;;;;10.83;8.23;;;;;;;2.03;88.21;99418.66;5085062;28;20467;-77
2022/02/14 00:15:26;;;;;;;10.60;8.63;;;;;;;1.83;88.43;99413.91;5084270;28;20592;-77
2022/02/14 00:17:54;;;;;;;10.17;7.83;;;;;;;1.70;89.81;99409.16;5085196;28;20296;-78
2022/02/14 00:20:21;;;;;;;10.33;7.97;;;;;;;1.68;88.86;99413.81;5084808;28;20192;-77
2022/02/14 00:22:49;;;;;;;10.07;8.40;;;;;;;1.56;90.21;99415.97;5118035;22;20261;-77
2022/02/14 00:25:19;;;;;;;9.10;7.73;;;;;;;1.45;91.33;99412.81;5087365;28;20192;-78
2022/02/14 00:27:48;;;;;;;10.03;8.10;;;;;;;1.34;92.14;99416.66;5105349;28;20264;-77
2022/02/14 00:30:18;;;;;;;10.70;8.10;;;;;;;1.11;93.53;99408.56;5102926;28;20180;-78
2022/02/14 00:32:45;;;;;;;11.70;8.87;;;;;;;1.05;94.84;99408.38;5104769;28;20180;-77
2022/02/14 00:35:17;;;;;;;11.27;8.57;;;;;;;0.97;95.79;99413.66;5112266;22;20231;-78
2022/02/14 00:37:44;;;;;;;9.53;7.93;;;;;;;0.98;95.58;99410.06;5106259;28;20275;-78
2022/02/14 00:40:11;;;;;;;11.07;8.40;;;;;;;0.92;95.65;99413.34;5103833;28;20200;-78
2022/02/14 00:42:38;;;;;;;10.87;8.07;;;;;;;0.92;95.48;99403.59;5105431;28;20249;-78
2022/02/14 00:45:06;;;;;;;11.23;8.20;;;;;;;0.88;96.37;99397.00;5071046;28;20222;-77
2022/02/14 00:47:33;;;;;;;9.63;7.83;;;;;;;0.79;97.26;99390.88;5103824;28;20240;-77
2022/02/14 00:50:08;;;;;;;10.73;8.37;;;;;;;0.73;97.77;99388.91;5070155;28;20191;-78
2022/02/14 00:52:35;;;;;;;11.67;8.57;;;;;;;0.65;98.57;99394.19;5105717;28;20180;-78
2022/02/14 00:55:02;;;;;;;11.77;8.73;;;;;;;0.60;98.87;99385.09;5104891;28;20211;-77
2022/02/14 00:57:28;;;;;;;9.50;7.53;;;;;;;0.56;99.56;99387.22;5085931;28;20228;-78
2022/02/14 00:59:56;;;;;;;12.80;8.23;;;;;;;0.48;100.00;99389.84;5086236;28;20188;-78
2022/02/14 01:02:24;;;;;;;10.93;8.43;;;;;;;0.44;100.00;99375.34;5103449;28;20188;-78
2022/02/14 01:04:51;;;;;;;10.93;8.30;;;;;;;0.44;100.00;99383.25;5103882;28;20211;-77
2022/02/14 01:07:17;;;;;;;10.57;8.50;;;;;;;0.53;100.00;99386.72;5069226;28;20210;-77
2022/02/14 01:09:47;;;;;;;11.00;8.63;;;;;;;0.43;100.00;99392.97;5086921;28;20188;-77
2022/02/14 01:12:14;;;;;;;11.87;8.17;;;;;;;0.47;100.00;99371.56;5103686;28;20211;-77
2022/02/14 01:14:42;;;;;;;11.20;8.27;;;;;;;0.47;100.00;99376.84;5104286;28;20644;-77
2022/02/14 01:17:11;;;;;;;11.63;9.00;;;;;;;0.46;100.00;99378.66;5104080;28;20200;-78
2022/02/14 01:19:39;;;;;;;10.33;8.43;;;;;;;0.52;100.00;99369.25;5103456;28;20176;-77
2022/02/14 01:22:08;;;;;;;9.97;7.97;;;;;;;0.72;100.00;99365.34;5103311;28;20183;-77
2022/02/14 01:24:38;;;;;;;10.30;7.63;;;;;;;0.63;100.00;99367.13;5087453;28;20314;-78
2022/02/14 01:27:04;;;;;;;9.97;7.60;;;;;;;0.67;99.34;99365.00;5103031;28;20189;-77
2022/02/14 01:29:33;;;;;;;10.40;7.63;;;;;;;0.64;100.00;99354.78;5085069;28;20627;-78
2022/02/14 01:32:03;;;;;;;11.87;8.13;;;;;;;0.55;100.00;99356.59;5103891;28;20215;-78
2022/02/14 01:34:32;;;;;;;10.80;7.90;;;;;;;0.58;100.00;99340.44;5103227;28;20258;-78
2022/02/14 01:37:02;;;;;;;10.13;7.27;;;;;;;0.52;100.00;99341.06;5085879;28;20207;-77
2022/02/14 01:39:29;;;;;;;10.60;8.10;;;;;;;0.55;100.00;99338.13;5102255;28;20196;-78
2022/02/14 01:41:59;;;;;;;10.37;7.90;;;;;;;0.44;100.00;99341.91;5085825;28;20180;-77
2022/02/14 01:44:34;;;;;;;10.50;8.20;;;;;;;0.41;100.00;99339.59;5085308;28;20540;-78
2022/02/14 01:47:16;;;;;;;10.53;8.07;;;;;;;0.46;100.00;99327.75;5103329;28;20202;-78
2022/02/14 01:49:44;;;;;;;10.50;7.80;;;;;;;0.36;100.00;99325.25;5102376;28;20183;-77
2022/02/14 01:52:13;;;;;;;8.27;6.77;;;;;;;0.47;100.00;99321.50;5103241;28;20206;-78
2022/02/14 01:54:42;;;;;;;11.27;8.50;;;;;;;0.45;100.00;99324.28;5102308;28;20192;-77
2022/02/14 01:57:10;;;;;;;11.80;7.97;;;;;;;0.39;100.00;99328.38;5101921;28;20187;-78
2022/02/14 01:59:37;;;;;;;10.73;7.90;;;;;;;0.28;100.00;99325.25;5101973;28;20221;-78
2022/02/14 02:02:06;;;;;;;10.03;7.73;;;;;;;0.33;100.00;99318.47;5085137;28;20255;-77
2022/02/14 02:04:33;;;;;;;9.33;7.60;;;;;;;0.26;100.00;99329.84;5085288;28;20200;-78
2022/02/14 02:07:02;;;;;;;10.23;7.70;;;;;;;0.29;100.00;99329.50;5085135;28;20214;-77
2022/02/14 02:09:32;;;;;;;10.20;7.77;;;;;;;0.22;100.00;99323.25;5102537;28;20180;-78
2022/02/14 02:14:44;;;;;;;9.10;7.37;;;;;;;0.18;100.00;99311.38;5101217;28;20214;-77
2022/02/14 02:17:11;;;;;;;9.83;7.73;;;;;;;0.20;100.00;99317.28;5102935;28;20180;-78
2022/02/14 02:19:38;;;;;;;10.23;7.70;;;;;;;0.12;100.00;99323.38;5083714;28;20180;-77
2022/02/14 02:22:05;;;;;;;11.13;7.90;;;;;;;0.14;100.00;99321.41;5103130;28;20211;-77
2022/02/14 02:24:51;;;;;;;9.50;6.83;;;;;;;0.14;100.00;99324.03;5102320;28;20207;-77
2022/02/14 02:27:25;;;;;;;10.60;7.57;;;;;;;0.21;100.00;99321.59;5102473;28;20172;-77
2022/02/14 02:29:59;;;;;;;13.50;8.33;;;;;;;0.11;100.00;99305.09;5086082;28;20176;-77
2022/02/14 02:32:28;;;;;;;9.77;7.87;;;;;;;0.08;100.00;99311.53;5101748;28;20211;-77
2022/02/14 02:34:55;;;;;;;10.53;7.67;;;;;;;-0.02;100.00;99298.50;5084986;28;20251;-77
2022/02/14 02:37:24;;;;;;;11.43;7.40;;;;;;;-0.06;100.00;99298.97;5085351;28;20191;-77
2022/02/14 02:39:51;;;;;;;9.87;7.87;;;;;;;-0.13;100.00;99297.94;5102299;28;20188;-77
2022/02/14 02:42:21;;;;;;;11.33;7.57;;;;;;;-0.15;100.00;99295.50;5084986;28;20351;-77
2022/02/14 02:44:52;;;;;;;10.50;7.60;;;;;;;-0.20;100.00;99291.69;5087205;23;20237;-77
2022/02/14 02:47:22;;;;;;;13.07;8.10;;;;;;;-0.14;100.00;99291.06;5064493;28;20285;-78
2022/02/14 02:49:50;;;;;;;10.83;7.60;;;;;;;-0.28;100.00;99292.44;5080467;28;20187;-77
2022/02/14 02:52:24;;;;;;;10.20;7.63;;;;;;;-0.30;100.00;99283.91;5103344;23;20238;-77
2022/02/14 02:55:11;;;;;;;13.23;7.97;;;;;;;-0.44;100.00;99287.13;5103393;22;20252;-77
2022/02/14 02:57:51;;;;;;;10.87;7.43;;;;;;;-0.46;100.00;99295.19;5107592;23;20239;-77
2022/02/14 03:00:29;;;;;;;13.53;7.97;;;;;;;-0.47;100.00;99298.00;5105791;23;20255;-77
2022/02/14 03:03:01;;;;;;;11.20;7.47;;;;;;;-0.51;100.00;99294.81;5090719;28;20185;-77
2022/02/14 03:05:30;;;;;;;10.37;8.17;;;;;;;-0.58;100.00;99296.44;5091300;28;20182;-77
2022/02/14 03:07:57;;;;;;;12.17;8.17;;;;;;;-0.50;100.00;99301.75;5090557;28;20181;-78
2022/02/14 03:10:26;;;;;;;11.30;8.13;;;;;;;-0.65;100.00;99297.22;5090792;28;20169;-78
2022/02/14 03:12:56;;;;;;;14.80;8.40;;;;;;;-0.64;100.00;99296.22;5116459;23;20692;-77
2022/02/14 03:15:28;;;;;;;12.30;8.10;;;;;;;-0.80;100.00;99283.84;5112400;28;20255;-78
2022/02/14 03:17:59;;;;;;;10.37;7.87;;;;;;;-0.70;100.00;99299.50;5111849;28;20198;-77
2022/02/14 03:20:28;;;;;;;10.40;7.83;;;;;;;-0.77;100.00;99299.28;5112083;28;20204;-77
2022/02/14 03:23:04;;;;;;;11.90;8.33;;;;;;;-0.76;100.00;99297.50;5113691;28;20161;-78
2022/02/14 03:25:51;;;;;;;11.30;7.97;;;;;;;-0.95;100.00;99282.75;5120656;22;20228;-78
2022/02/14 03:28:20;;;;;;;12.27;8.97;;;;;;;-0.95;100.00;99295.91;5080806;28;20568;-77
2022/02/14 03:31:08;;;;;;;10.63;7.50;;;;;;;-0.99;100.00;99291.94;5114659;28;20526;-77
2022/02/14 03:34:00;;;;;;;10.87;7.97;;;;;;;-0.90;100.00;99297.09;5116145;28;20189;-78
2022/02/14 03:36:36;;;;;;;10.33;7.97;;;;;;;-0.94;100.00;99294.94;5070602;28;20217;-77
2022/02/14 03:39:11;;;;;;;10.83;8.00;;;;;;;-1.10;100.00;99292.16;5073468;28;20607;-77
2022/02/14 03:41:45;;;;;;;10.27;8.30;;;;;;;-1.19;100.00;99290.47;5056564;28;20182;-77
2022/02/14 03:44:20;;;;;;;9.77;7.90;;;;;;;-1.15;100.00;99294.44;5070062;28;20173;-77
2022/02/14 03:47:11;;;;;;;12.10;8.10;;;;;;;-1.10;100.00;99292.16;5071816;28;20174;-77
2022/02/14 03:49:52;;;;;;;12.27;8.77;;;;;;;-1.09;100.00;99292.03;5109267;23;20529;-78
2022/02/14 03:52:22;;;;;;;12.10;8.40;;;;;;;-1.20;100.00;99275.66;5102905;28;20199;-77
2022/02/14 03:54:51;;;;;;;11.40;7.63;;;;;;;-1.21;100.00;99285.34;5110442;28;20192;-77
2022/02/14 03:57:22;;;;;;;12.57;8.40;;;;;;;-1.19;100.00;99285.19;5111997;28;20272;-77
2022/02/14 03:59:52;;;;;;;11.17;8.07;;;;;;;-1.24;100.00;99287.47;5091121;28;20200;-77
2022/02/14 04:02:23;;;;;;;10.67;7.80;;;;;;;-1.32;100.00;99280.34;5109981;28;20188;-77
2022/02/14 04:05:03;;;;;;;11.80;8.40;;;;;;;-1.36;100.00;99273.75;5110399;28;20219;-77
2022/02/14 04:07:58;;;;;;;10.47;7.87;;;;;;;-1.38;100.00;99284.41;5111578;28;20255;-77
2022/02/14 04:10:28;;;;;;;12.50;7.93;;;;;;;-1.34;100.00;99287.56;5110575;28;20235;-77
2022/02/14 04:12:56;;;;;;;10.53;8.10;;;;;;;-1.31;100.00;99291.69;5135854;22;20250;-78
2022/02/14 04:15:25;;;;;;;10.37;8.40;;;;;;;-1.42;100.00;99280.44;5094886;28;20183;-78
2022/02/14 04:17:54;;;;;;;12.40;8.30;;;;;;;-1.40;100.00;99282.94;5110202;22;20235;-77
2022/02/14 04:20:21;;;;;;;11.83;8.77;;;;;;;-1.45;100.00;99295.69;5093008;28;20501;-77
2022/02/14 04:23:08;;;;;;;10.87;8.53;;;;;;;-1.55;100.00;99281.81;5103524;22;20194;-77
2022/02/14 04:25:38;;;;;;;10.87;8.33;;;;;;;-1.56;100.00;99285.41;5132934;22;20228;-78
2022/02/14 04:28:23;;;;;;;12.40;8.63;;;;;;;-1.64;100.00;99282.72;5095203;28;20244;-78
2022/02/14 04:30:54;;;;;;;13.13;9.27;;;;;;;-1.70;100.00;99293.81;5092844;28;20168;-78
2022/02/14 04:33:21;;;;;;;11.53;8.73;;;;;;;-1.75;100.00;99289.00;5117544;22;20228;-77
2022/02/14 04:35:51;;;;;;;12.43;9.17;;;;;;;-1.69;100.00;99288.41;5093956;28;20210;-77
2022/02/14 04:38:28;;;;;;;11.03;8.97;;;;;;;-1.65;100.00;99296.81;5110170;28;20197;-77
2022/02/14 04:41:19;;;;;;;13.77;8.80;;;;;;;-1.71;100.00;99292.97;5111552;28;20168;-78
2022/02/14 04:43:53;;;;;;;12.10;9.37;;;;;;;-1.70;100.00;99281.50;5117830;22;20301;-77
2022/02/14 04:46:21;;;;;;;11.97;7.93;;;;;;;-1.73;100.00;99287.06;5083724;28;20189;-77
2022/02/14 04:48:47;;;;;;;12.57;8.97;;;;;;;-1.85;100.00;99283.00;5084622;28;20219;-77
2022/02/14 04:51:15;;;;;;;10.50;8.80;;;;;;;-1.96;100.00;99284.03;5084315;28;20184;-78
2022/02/14 04:53:41;;;;;;;12.53;9.20;;;;;;;-1.96;100.00;99296.34;5082980;28;20189;-78
2022/02/14 04:56:08;;;;;;;12.77;8.90;;;;;;;-1.93;100.00;99294.25;5085054;28;20537;-77
2022/02/14 04:58:37;;;;;;;11.17;8.47;;;;;;;-2.06;100.00;99295.59;5117125;22;20267;-77
2022/02/14 05:01:07;;;;;;;12.50;8.83;;;;;;;-2.08;100.00;99287.84;5094142;28;20196;-78
2022/02/14 05:03:40;;;;;;;11.63;8.83;;;;;;;-2.15;100.00;99291.22;5182301;22;20235;-77
2022/02/14 05:06:21;;;;;;;11.53;8.70;;;;;;;-2.19;100.00;99285.41;5013216;28;20199;-77
2022/02/14 05:09:02;;;;;;;11.97;9.47;;;;;;;-2.32;100.00;99277.91;5032442;28;20187;-78
2022/02/14 05:11:35;;;;;;;12.23;8.97;;;;;;;-2.27;100.00;99280.06;5031271;28;20185;-78
2022/02/14 05:14:12;;;;;;;11.23;8.80;;;;;;;-2.31;100.00;99287.44;5032220;28;20274;-77
2022/02/14 05:16:52;;;;;;;12.20;9.47;;;;;;;-2.37;100.00;99287.16;5032237;28;20202;-78
2022/02/14 05:19:23;;;;;;;10.90;8.90;;;;;;;-2.36;100.00;99284.41;5031400;28;20206;-77
2022/02/14 05:22:04;;;;;;;13.30;9.97;;;;;;;-2.40;100.00;99275.19;5042271;22;20468;-77
2022/02/14 05:24:36;;;;;;;12.67;9.73;;;;;;;-2.23;100.00;99278.81;5112259;28;20428;-77
2022/02/14 05:27:08;;;;;;;13.53;9.10;;;;;;;-2.31;100.00;99281.34;5093063;28;20234;-77
2022/02/14 05:29:48;;;;;;;11.13;9.43;;;;;;;-2.30;100.00;99275.97;5081418;28;20188;-77
2022/02/14 05:32:21;;;;;;;12.03;9.40;;;;;;;-2.39;100.00;99297.84;5110829;28;20213;-77
2022/02/14 05:34:59;;;;;;;12.30;9.80;;;;;;;-2.33;100.00;99293.78;5109031;28;20200;-77
2022/02/14 05:37:41;;;;;;;13.17;10.20;;;;;;;-2.44;100.00;99291.38;5108689;28;20176;-77
2022/02/14 05:40:08;;;;;;;13.07;9.60;;;;;;;-2.41;100.00;99299.75;5107274;28;20211;-77
2022/02/14 05:42:38;;;;;;;14.50;9.83;;;;;;;-2.51;100.00;99300.78;5092276;28;20191;-77
2022/02/14 05:45:24;;;;;;;14.97;10.00;;;;;;;-2.47;100.00;99291.66;5104551;28;20237;-77
2022/02/14 05:47:53;;;;;;;12.43;10.23;;;;;;;-2.54;100.00;99299.28;5106839;28;20185;-77
2022/02/14 05:50:29;;;;;;;14.37;11.20;;;;;;;-2.53;100.00;99298.31;5107069;28;20191;-77
2022/02/14 05:52:57;;;;;;;13.87;10.50;;;;;;;-2.53;100.00;99308.81;5108534;28;20203;-77
2022/02/14 05:55:32;;;;;;;15.10;11.10;;;;;;;-2.46;100.00;99309.88;5107931;28;20191;-77
2022/02/14 05:58:05;;;;;;;14.17;10.10;;;;;;;-2.46;100.00;99314.28;5117327;22;20269;-77
2022/02/14 06:00:35;;;;;;;14.80;10.53;;;;;;;-2.53;100.00;99311.44;5107231;28;20222;-77
2022/02/14 06:03:07;;;;;;;14.67;10.53;;;;;;;-2.59;100.00;99312.00;5107016;28;20180;-77
2022/02/14 06:05:43;;;;;;;16.27;11.13;;;;;;;-2.56;100.00;99306.44;5108847;28;20172;-77
2022/02/14 06:08:21;;;;;;;15.10;11.60;;;;;;;-2.53;100.00;99314.06;5097462;23;20204;-77
2022/02/14 06:11:10;;;;;;;14.00;10.43;;;;;;;-2.59;100.00;99313.78;5096680;28;20214;-77
2022/02/14 06:13:46;;;;;;;15.77;11.20;;;;;;;-2.62;100.00;99317.53;5117274;22;20186;-77
2022/02/14 06:16:12;;;;;;;16.07;11.67;;;;;;;-2.60;100.00;99309.50;5089928;28;20212;-77
2022/02/14 06:18:42;;;;;;;14.60;11.30;;;;;;;-2.55;100.00;99320.38;5106756;28;20226;-77
2022/02/14 06:21:10;;;;;;;14.10;10.50;;;;;;;-2.59;100.00;99309.38;5109070;28;20184;-77
2022/02/14 06:23:43;;;;;;;15.70;10.77;;;;;;;-2.53;100.00;99318.47;5108574;28;20193;-77
2022/02/14 06:26:14;;;;;;;16.90;11.30;;;;;;;-2.51;100.00;99306.00;5105459;28;20188;-77
2022/02/14 06:28:44;;;;;;;16.50;11.70;;;;;;;-2.44;100.00;99315.81;5090285;28;20180;-77
2022/02/14 06:31:49;;;;;;;15.87;11.73;;;;;;;-2.39;100.00;99310.94;5095114;28;20192;-78
2022/02/14 06:34:17;;;;;;;17.03;11.43;;;;;;;-2.32;100.00;99317.25;5114149;28;20180;-77
2022/02/14 06:36:46;;;;;;;16.40;11.83;;;;;;;-2.25;100.00;99313.09;5202186;22;20243;-77
2022/02/14 06:39:13;;;;;;;15.63;11.23;;;;;;;-2.23;100.00;99313.75;5111474;28;20209;-77
2022/02/14 06:41:49;;;;;;;17.40;11.70;;;;;;;-2.15;100.00;99320.91;5095641;28;20188;-77
2022/02/14 06:44:16;;;;;;;14.93;10.70;;;;;;;-2.07;100.00;99315.75;5109941;28;20224;-77
2022/02/14 06:46:45;;;;;;;14.37;11.03;;;;;;;-2.04;100.00;99315.44;5112123;28;20188;-78
2022/02/14 06:49:15;;;;;;;15.03;10.90;;;;;;;-1.96;100.00;99312.09;5118875;22;20235;-78
2022/02/14 06:51:54;;;;;;;15.43;11.07;;;;;;;-1.87;100.00;99313.84;5101508;23;20549;-78
2022/02/14 06:54:24;;;;;;;15.13;11.40;;;;;;;-1.82;100.00;99315.03;5090547;28;20263;-78
2022/02/14 06:56:52;;;;;;;16.53;12.17;;;;;;;-1.70;100.00;99310.41;5109886;28;20184;-78
2022/02/14 06:59:19;;;;;;;14.20;11.13;;;;;;;-1.68;100.00;99300.53;5109615;28;20227;-78
2022/02/14 07:01:47;;;;;;;18.43;12.23;;;;;;;-1.50;100.00;99308.44;5109472;28;20208;-78
2022/02/14 07:04:18;;;;;;;15.70;11.60;;;;;;;-1.38;100.00;99300.19;5110798;28;20177;-77
2022/02/14 07:06:55;;;;;;;17.20;12.87;;;;;;;-1.18;100.00;99311.34;5109273;28;20180;-78
2022/02/14 07:09:31;;;;;;;20.90;12.83;;;;;;;-1.06;100.00;99310.13;5088691;22;20228;-77
2022/02/14 07:12:09;;;;;;;15.47;11.40;;;;;;;-0.85;100.00;99309.78;5111985;28;20180;-77
2022/02/14 07:14:42;;;;;;;14.73;11.43;;;;;;;-0.83;100.00;99299.06;5115766;28;20211;-78
2022/02/14 07:17:12;;;;;;;15.73;11.50;;;;;;;-0.71;100.00;99306.56;5111990;28;20247;-78
2022/02/14 07:19:42;;;;;;;17.27;11.40;;;;;;;-0.55;100.00;99311.09;5114001;28;20172;-77
2022/02/14 07:22:09;;;;;;;15.17;11.57;;;;;;;-0.47;100.00;99306.69;5100096;23;20487;-78
2022/02/14 07:24:43;;;;;;;16.10;11.77;;;;;;;-0.34;100.00;99310.72;5084751;22;20233;-79
2022/02/14 07:27:40;;;;;;;16.00;11.53;;;;;;;-0.23;100.00;99308.59;5062190;28;20245;-78
2022/02/14 07:30:17;;;;;;;15.17;11.87;;;;;;;-0.09;100.00;99307.16;5091651;28;20196;-78
2022/02/14 07:32:48;;;;;;;13.93;11.23;;;;;;;-0.03;100.00;99309.16;5092126;28;20167;-78
2022/02/14 07:35:16;;;;;;;15.27;11.50;;;;;;;0.04;100.00;99312.84;5093948;28;20177;-79
2022/02/14 07:37:50;;;;;;;14.77;11.73;;;;;;;0.10;100.00;99308.69;5090953;28;20563;-79
2022/02/14 07:40:37;;;;;;;14.77;11.97;;;;;;;0.11;100.00;99300.66;5074844;28;20204;-78
2022/02/14 07:43:10;;;;;;;21.27;16.77;;;;;;;0.26;100.00;99301.69;5089388;28;20184;-80
2022/02/14 07:45:36;;;;;;;16.43;12.87;;;;;;;0.26;100.00;99291.13;5098385;22;20254;-78
2022/02/14 07:48:14;;;;;;;14.93;12.00;;;;;;;0.36;100.00;99306.81;5094084;28;20188;-79
2022/02/14 07:50:40;;;;;;;15.90;11.67;;;;;;;0.36;100.00;99294.47;5112068;28;20212;-78
2022/02/14 07:53:16;;;;;;;14.03;11.37;;;;;;;0.51;100.00;99305.19;5079394;28;20223;-79
2022/02/14 07:55:42;;;;;;;14.70;11.43;;;;;;;0.57;100.00;99293.13;5113152;28;20457;-79
2022/02/14 07:58:16;;;;;;;13.87;11.60;;;;;;;0.62;100.00;99290.84;5098953;22;20232;-79
2022/02/14 08:00:44;;;;;;;15.73;11.97;;;;;;;0.75;100.00;99294.63;5108625;28;20220;-78
2022/02/14 08:03:35;;;;;;;15.63;12.60;;;;;;;0.79;100.00;99289.88;5073878;28;20181;-79
2022/02/14 08:06:23;;;;;;;14.07;11.80;;;;;;;0.85;100.00;99300.56;5108208;28;20648;-78
2022/02/14 08:08:53;;;;;;;14.13;11.47;;;;;;;0.89;100.00;99296.59;5109699;28;20252;-78
2022/02/14 08:11:21;;;;;;;14.67;11.93;;;;;;;0.92;100.00;99289.34;5107853;28;20184;-78
2022/02/14 08:13:48;;;;;;;14.63;11.43;;;;;;;0.97;100.00;99297.59;5109164;28;20188;-78
2022/02/14 08:16:22;;;;;;;14.03;11.63;;;;;;;1.00;100.00;99284.91;5085838;28;20200;-78
2022/02/14 08:18:49;;;;;;;14.53;11.63;;;;;;;1.09;100.00;99294.44;5068547;28;20203;-78
2022/02/14 08:21:20;;;;;;;13.70;11.20;;;;;;;1.15;100.00;99291.13;5087238;28;20204;-78
2022/02/14 08:23:47;;;;;;;17.70;12.50;;;;;;;1.24;100.00;99290.13;5086555;28;20181;-78
2022/02/14 08:26:18;;;;;;;14.20;11.37;;;;;;;1.21;100.00;99281.72;5086372;28;20619;-78
2022/02/14 08:28:45;;;;;;;14.90;11.47;;;;;;;1.39;100.00;99284.16;5085676;28;20181;-79
2022/02/14 08:31:12;;;;;;;16.80;12.53;;;;;;;1.39;100.00;99279.72;5087505;28;20169;-78
2022/02/14 08:33:45;;;;;;;13.77;11.60;;;;;;;1.41;100.00;99277.69;5072028;28;20184;-79
2022/02/14 08:36:18;;;;;;;15.83;12.17;;;;;;;1.51;100.00;99262.50;5087557;28;20193;-78
2022/02/14 08:38:45;;;;;;;14.33;12.17;;;;;;;1.67;100.00;99262.44;5087475;28;20173;-78
2022/02/14 08:41:14;;;;;;;15.63;12.37;;;;;;;1.77;100.00;99259.59;5084616;28;20189;-79
2022/02/14 08:43:42;;;;;;;15.27;12.07;;;;;;;1.74;100.00;99263.38;5086961;28;20200;-78
2022/02/14 08:46:14;;;;;;;14.83;12.53;;;;;;;1.88;100.00;99258.38;5087465;23;20311;-79
2022/02/14 08:48:56;;;;;;;14.67;11.80;;;;;;;1.98;100.00;99257.16;5092564;28;20176;-79
2022/02/14 08:51:38;;;;;;;14.23;12.17;;;;;;;2.04;100.00;99247.72;5107106;28;20192;-78
2022/02/14 08:54:06;;;;;;;13.87;12.23;;;;;;;2.09;100.00;99251.50;5104375;28;20211;-79
2022/02/14 08:56:37;;;;;;;13.67;11.67;;;;;;;2.11;100.00;99253.94;5108419;28;20198;-79
2022/02/14 08:59:19;;;;;;;15.13;12.33;;;;;;;2.13;100.00;99249.31;5112717;28;20216;-79
2022/02/14 09:01:47;;;;;;;15.10;12.57;;;;;;;2.27;100.00;99243.28;5108982;28;20194;-78
2022/02/14 09:04:18;;;;;;;14.00;12.07;;;;;;;2.44;100.00;99249.25;5106412;28;20204;-79
2022/02/14 09:06:46;;;;;;;13.90;11.93;;;;;;;2.57;100.00;99246.84;5111495;28;20210;-79
2022/02/14 09:09:27;;;;;;;14.43;11.67;;;;;;;2.62;100.00;99242.66;5105541;28;20232;-78
2022/02/14 09:11:55;;;;;;;15.97;12.40;;;;;;;2.72;100.00;99241.59;5092671;28;20192;-78
2022/02/14 09:14:28;;;;;;;17.13;12.57;;;;;;;2.80;100.00;99244.97;5126646;22;20246;-78
2022/02/14 09:16:57;;;;;;;16.70;12.40;;;;;;;2.83;100.00;99239.34;5109660;28;20179;-78
2022/02/14 09:19:37;;;;;;;17.43;12.33;;;;;;;2.97;100.00;99243.03;5108106;28;20618;-78
2022/02/14 09:22:07;;;;;;;14.07;12.20;;;;;;;2.94;100.00;99248.69;5106588;28;20176;-79
2022/02/14 09:24:39;;;;;;;15.60;12.40;;;;;;;3.05;100.00;99240.28;5088325;28;20222;-78
2022/02/14 09:27:06;;;;;;;14.23;12.50;;;;;;;3.05;100.00;99243.75;5105400;28;20180;-78
2022/02/14 09:29:33;;;;;;;15.53;12.53;;;;;;;3.17;100.00;99238.84;5088392;28;20251;-79
2022/02/14 09:32:00;;;;;;;15.80;12.17;;;;;;;3.29;100.00;99233.91;5117841;28;20196;-78
2022/02/14 09:34:31;;;;;;;17.20;12.90;;;;;;;3.46;100.00;99235.38;5115960;28;20548;-78
2022/02/14 09:36:58;;;;;;;15.20;13.00;;;;;;;3.58;100.00;99235.75;5106886;28;20202;-78
2022/02/14 09:39:30;;;;;;;13.73;11.77;;;;;;;3.40;100.00;99231.66;5107251;28;20222;-78
2022/02/14 09:41:59;;;;;;;17.00;12.20;;;;;;;3.69;100.00;99240.56;5088979;28;20507;-78
2022/02/14 09:44:29;;;;;;;14.80;12.67;;;;;;;3.70;100.00;99235.06;5076433;28;20188;-78
2022/02/14 09:47:07;;;;;;;15.83;12.93;;;;;;;3.72;100.00;99233.06;5090856;28;20255;-78
2022/02/14 09:49:34;;;;;;;15.60;12.87;;;;;;;3.90;100.00;99230.84;5104171;28;20176;-78
2022/02/14 09:52:02;;;;;;;15.77;12.43;;;;;;;3.99;100.00;99229.72;5107322;28;20290;-78
2022/02/14 09:54:30;;;;;;;15.10;12.50;;;;;;;3.99;100.00;99229.72;5107408;28;20192;-78
2022/02/14 09:56:57;;;;;;;14.77;12.40;;;;;;;3.98;100.00;99232.56;5088489;28;20237;-78
2022/02/14 09:59:23;;;;;;;15.77;13.10;;;;;;;3.96;100.00;99223.97;5090262;28;20211;-78
2022/02/14 10:01:57;;;;;;;15.60;12.23;;;;;;;4.03;99.69;99227.50;5108998;28;20180;-78
2022/02/14 10:04:23;;;;;;;14.60;12.20;;;;;;;3.99;100.00;99226.25;5105957;28;20188;-78
2022/02/14 10:06:51;;;;;;;14.40;12.33;;;;;;;4.12;100.00;99225.56;5087193;28;20188;-79
2022/02/14 10:09:27;;;;;;;14.77;12.50;;;;;;;4.05;100.00;99222.84;5092066;28;20184;-78
2022/02/14 10:12:05;;;;;;;17.73;12.53;;;;;;;4.19;100.00;99222.00;5095438;28;20214;-78
2022/02/14 10:14:33;;;;;;;16.23;12.33;;;;;;;4.34;100.00;99227.22;5088483;28;20582;-78
2022/02/14 10:17:18;;;;;;;14.93;12.50;;;;;;;4.47;99.87;99215.94;5106923;28;20253;-78
2022/02/14 10:20:03;;;;;;;14.73;11.43;;;;;;;4.58;99.18;99224.16;5088024;28;20210;-79
2022/02/14 10:23:11;;;;;;;15.00;12.43;;;;;;;4.69;98.49;99204.28;5107945;28;20180;-78
2022/02/14 10:25:42;;;;;;;15.37;12.67;;;;;;;4.96;96.30;99216.72;5112318;28;20168;-78
2022/02/14 10:28:19;;;;;;;13.33;11.93;;;;;;;5.04;92.09;99203.28;5089781;28;20214;-78
2022/02/14 10:31:02;;;;;;;14.97;12.37;;;;;;;5.07;92.32;99207.41;5108091;28;20230;-79
2022/02/14 10:33:48;;;;;;;14.93;12.33;;;;;;;5.10;93.26;99199.03;5107731;28;20183;-78
2022/02/14 10:36:36;;;;;;;15.67;12.33;;;;;;;5.30;92.63;99192.84;5107852;28;20180;-78
2022/02/14 10:39:32;;;;;;;15.23;12.90;;;;;;;5.34;93.45;99187.94;5106857;28;20516;-78
2022/02/14 10:42:11;;;;;;;15.43;12.83;;;;;;;5.48;92.45;99186.19;5073841;23;20312;-78
2022/02/14 10:47:46;;;;;;;15.93;12.50;;;;;;;5.80;89.97;99179.34;5070038;28;20189;-78
2022/02/14 10:50:19;;;;;;;17.20;12.83;;;;;;;5.87;88.89;99178.41;5083844;22;20230;-78
2022/02/14 10:52:55;;;;;;;17.03;13.43;;;;;;;5.98;90.75;99169.81;5093739;28;20172;-78
2022/02/14 10:55:30;;;;;;;16.13;12.93;;;;;;;5.98;87.82;99169.81;5091553;28;20186;-78
2022/02/14 10:58:15;;;;;;;14.67;12.93;;;;;;;6.00;88.79;99164.31;5107044;28;20223;-78
2022/02/14 11:00:45;;;;;;;15.33;13.00;;;;;;;6.08;87.27;99153.47;5109773;28;20216;-78
2022/02/14 11:03:31;;;;;;;27.50;22.33;;;;;;;6.22;86.07;99157.78;5109252;28;20176;-78
2022/02/14 11:06:01;;;;;;;24.10;19.63;;;;;;;6.32;85.25;99144.91;5088683;28;20185;-78
2022/02/14 11:08:28;;;;;;;27.53;23.10;;;;;;;6.44;83.58;99151.25;5090384;28;20186;-78
2022/02/14 11:11:00;;;;;;;17.03;15.23;;;;;;;6.43;83.19;99140.84;5082525;28;20170;-77
2022/02/14 11:13:35;;;;;;;16.93;14.27;;;;;;;6.43;83.55;99141.66;5081034;28;20188;-78
2022/02/14 11:16:02;;;;;;;15.20;13.53;;;;;;;6.62;82.68;99145.34;5080200;28;20964;-78
2022/02/14 11:18:41;;;;;;;14.03;12.53;;;;;;;6.69;79.75;99145.31;5066956;28;20247;-78
2022/02/14 11:21:27;;;;;;;12.77;11.47;;;;;;;6.73;80.56;99139.38;5066136;28;20201;-78
2022/02/14 11:24:03;;;;;;;14.10;12.57;;;;;;;6.85;80.43;99144.91;5087906;28;20177;-78
2022/02/14 11:26:55;;;;;;;13.40;12.07;;;;;;;6.98;81.91;99140.38;5069700;28;20243;-78
2022/02/14 11:29:52;;;;;;;14.10;12.60;;;;;;;7.04;76.78;99131.53;5070122;28;20181;-78
2022/02/14 11:32:29;;;;;;;13.03;11.63;;;;;;;7.06;77.42;99123.31;5086146;28;20168;-78
2022/02/14 11:35:02;;;;;;;13.97;12.57;;;;;;;7.19;77.03;99109.97;5067445;28;20641;-78
2022/02/14 11:37:58;;;;;;;12.60;11.30;;;;;;;7.31;76.23;99121.63;5083752;28;20398;-78
2022/02/14 11:40:48;;;;;;;12.87;11.57;;;;;;;7.30;74.87;99108.50;5082589;28;20606;-78
2022/02/14 11:43:25;;;;;;;13.00;11.60;;;;;;;7.30;74.08;99109.31;5085521;28;20185;-78
2022/02/14 11:46:20;;;;;;;13.40;11.90;;;;;;;7.25;76.41;99102.97;5085413;28;20235;-78
2022/02/14 11:49:00;;;;;;;13.30;11.63;;;;;;;7.37;74.93;99103.97;5088497;28;20170;-78
2022/02/14 11:52:09;;;;;;;13.30;11.50;;;;;;;7.47;75.55;99093.66;5101500;28;20219;-78